sensor_id;sensor_type;location;lat;lon;timestamp;temperature;humidity
19180;DHT22;9722;48.754;8.868;2023-05-09T00:01:38;12.40;99.90
19180;DHT22;9722;48.754;8.868;2023-05-09T00:04:59;12.40;99.90
19180;DHT22;9722;48.754;8.868;2023-05-09T00:08:23;12.50;99.90
19180;DHT22;9722;48.754;8.868;2023-05-09T00:11:43;12.50;99.90
19180;DHT22;9722;48.754;8.868;2023-05-09T00:15:05;12.60;99.90
19180;DHT22;9722;48.754;8.868;2023-05-09T00:18:27;12.70;99.90
19180;DHT22;9722;48.754;8.868;2023-05-09T00:21:49;12.70;99.90
19180;DHT22;9722;48.754;8.868;2023-05-09T00:25:10;12.80;99.90
19180;DHT22;9722;48.754;8.868;2023-05-09T00:28:30;12.80;99.90
19180;DHT22;9722;48.754;8.868;2023-05-09T00:31:51;12.80;99.90
19180;DHT22;9722;48.754;8.868;2023-05-09T00:35:12;12.90;99.90
19180;DHT22;9722;48.754;8.868;2023-05-09T00:38:32;12.90;99.90
19180;DHT22;9722;48.754;8.868;2023-05-09T00:41:55;12.90;99.90
19180;DHT22;9722;48.754;8.868;2023-05-09T00:45:15;13.00;99.90
19180;DHT22;9722;48.754;8.868;2023-05-09T00:48:36;13.00;99.90
19180;DHT22;9722;48.754;8.868;2023-05-09T00:51:57;13.00;99.90
19180;DHT22;9722;48.754;8.868;2023-05-09T00:55:18;13.00;99.90
19180;DHT22;9722;48.754;8.868;2023-05-09T00:58:38;13.00;99.90
19180;DHT22;9722;48.754;8.868;2023-05-09T01:01:59;13.00;99.90
19180;DHT22;9722;48.754;8.868;2023-05-09T01:05:25;13.10;99.90
19180;DHT22;9722;48.754;8.868;2023-05-09T01:12:48;13.10;99.90
19180;DHT22;9722;48.754;8.868;2023-05-09T01:16:22;13.10;99.90
19180;DHT22;9722;48.754;8.868;2023-05-09T01:20:19;13.10;99.90
19180;DHT22;9722;48.754;8.868;2023-05-09T01:27:42;13.10;99.90
19180;DHT22;9722;48.754;8.868;2023-05-09T01:31:05;13.10;99.90
19180;DHT22;9722;48.754;8.868;2023-05-09T01:34:28;13.10;99.90
19180;DHT22;9722;48.754;8.868;2023-05-09T01:37:50;13.10;99.90
19180;DHT22;9722;48.754;8.868;2023-05-09T01:41:11;13.20;99.90
19180;DHT22;9722;48.754;8.868;2023-05-09T01:44:38;13.20;99.90
19180;DHT22;9722;48.754;8.868;2023-05-09T01:47:59;13.20;99.90
19180;DHT22;9722;48.754;8.868;2023-05-09T01:51:20;13.10;99.90
19180;DHT22;9722;48.754;8.868;2023-05-09T01:54:42;13.10;99.90
19180;DHT22;9722;48.754;8.868;2023-05-09T01:58:04;13.20;99.90
19180;DHT22;9722;48.754;8.868;2023-05-09T02:01:25;13.20;99.90
19180;DHT22;9722;48.754;8.868;2023-05-09T02:04:47;13.20;99.90
19180;DHT22;9722;48.754;8.868;2023-05-09T02:08:08;13.30;99.90
19180;DHT22;9722;48.754;8.868;2023-05-09T02:11:29;13.30;99.90
19180;DHT22;9722;48.754;8.868;2023-05-09T02:14:50;13.30;99.90
19180;DHT22;9722;48.754;8.868;2023-05-09T02:18:10;13.30;99.90
19180;DHT22;9722;48.754;8.868;2023-05-09T02:21:32;13.30;99.90
19180;DHT22;9722;48.754;8.868;2023-05-09T02:24:52;13.40;99.90
19180;DHT22;9722;48.754;8.868;2023-05-09T02:28:13;13.40;99.90
19180;DHT22;9722;48.754;8.868;2023-05-09T02:31:35;13.40;99.90
19180;DHT22;9722;48.754;8.868;2023-05-09T02:34:57;13.40;99.90
19180;DHT22;9722;48.754;8.868;2023-05-09T02:38:18;13.40;99.90
19180;DHT22;9722;48.754;8.868;2023-05-09T02:41:39;13.40;99.90
19180;DHT22;9722;48.754;8.868;2023-05-09T02:44:59;13.50;99.90
19180;DHT22;9722;48.754;8.868;2023-05-09T02:48:20;13.50;99.90
19180;DHT22;9722;48.754;8.868;2023-05-09T02:51:40;13.60;99.90
19180;DHT22;9722;48.754;8.868;2023-05-09T02:55:02;13.60;99.90
19180;DHT22;9722;48.754;8.868;2023-05-09T02:58:22;13.60;99.90
19180;DHT22;9722;48.754;8.868;2023-05-09T03:01:43;13.70;99.90
19180;DHT22;9722;48.754;8.868;2023-05-09T03:05:04;13.70;99.90
19180;DHT22;9722;48.754;8.868;2023-05-09T03:08:25;13.80;99.90
19180;DHT22;9722;48.754;8.868;2023-05-09T03:11:45;13.80;99.90
19180;DHT22;9722;48.754;8.868;2023-05-09T03:15:06;13.80;99.90
19180;DHT22;9722;48.754;8.868;2023-05-09T03:18:27;13.80;99.90
19180;DHT22;9722;48.754;8.868;2023-05-09T03:21:47;13.80;99.90
19180;DHT22;9722;48.754;8.868;2023-05-09T03:25:08;13.90;99.90
19180;DHT22;9722;48.754;8.868;2023-05-09T03:28:28;13.90;99.90
19180;DHT22;9722;48.754;8.868;2023-05-09T03:31:49;13.90;99.90
19180;DHT22;9722;48.754;8.868;2023-05-09T03:35:09;13.90;99.90
19180;DHT22;9722;48.754;8.868;2023-05-09T03:38:30;13.90;99.90
19180;DHT22;9722;48.754;8.868;2023-05-09T03:41:51;13.90;99.90
19180;DHT22;9722;48.754;8.868;2023-05-09T03:45:11;13.90;99.90
19180;DHT22;9722;48.754;8.868;2023-05-09T03:48:32;13.80;99.90
19180;DHT22;9722;48.754;8.868;2023-05-09T03:51:52;13.80;99.90
19180;DHT22;9722;48.754;8.868;2023-05-09T03:55:13;13.80;99.90
19180;DHT22;9722;48.754;8.868;2023-05-09T03:58:33;13.80;99.90
19180;DHT22;9722;48.754;8.868;2023-05-09T04:01:54;13.80;99.90
19180;DHT22;9722;48.754;8.868;2023-05-09T04:05:15;13.80;99.90
19180;DHT22;9722;48.754;8.868;2023-05-09T04:08:36;13.70;99.90
19180;DHT22;9722;48.754;8.868;2023-05-09T04:11:56;13.80;99.90
19180;DHT22;9722;48.754;8.868;2023-05-09T04:15:17;13.80;99.90
19180;DHT22;9722;48.754;8.868;2023-05-09T04:18:37;13.70;99.90
19180;DHT22;9722;48.754;8.868;2023-05-09T04:22:01;13.70;99.90
19180;DHT22;9722;48.754;8.868;2023-05-09T04:25:21;13.70;99.90
19180;DHT22;9722;48.754;8.868;2023-05-09T04:28:42;13.80;99.90
19180;DHT22;9722;48.754;8.868;2023-05-09T04:32:03;13.70;99.90
19180;DHT22;9722;48.754;8.868;2023-05-09T04:35:24;13.70;99.90
19180;DHT22;9722;48.754;8.868;2023-05-09T04:38:45;13.80;99.90
19180;DHT22;9722;48.754;8.868;2023-05-09T04:42:06;13.80;99.90
19180;DHT22;9722;48.754;8.868;2023-05-09T04:45:27;13.80;99.90
19180;DHT22;9722;48.754;8.868;2023-05-09T04:48:47;13.80;99.90
19180;DHT22;9722;48.754;8.868;2023-05-09T04:52:08;13.90;99.90
19180;DHT22;9722;48.754;8.868;2023-05-09T04:55:28;13.90;99.90
19180;DHT22;9722;48.754;8.868;2023-05-09T04:58:49;13.90;99.90
19180;DHT22;9722;48.754;8.868;2023-05-09T05:02:09;13.90;99.90
19180;DHT22;9722;48.754;8.868;2023-05-09T05:05:30;13.90;99.90
19180;DHT22;9722;48.754;8.868;2023-05-09T05:08:50;13.90;99.90
19180;DHT22;9722;48.754;8.868;2023-05-09T05:12:11;14.00;99.90
19180;DHT22;9722;48.754;8.868;2023-05-09T05:15:31;14.10;99.90
19180;DHT22;9722;48.754;8.868;2023-05-09T05:18:52;14.20;99.90
19180;DHT22;9722;48.754;8.868;2023-05-09T05:22:12;14.20;99.90
19180;DHT22;9722;48.754;8.868;2023-05-09T05:25:33;14.30;99.90
19180;DHT22;9722;48.754;8.868;2023-05-09T05:28:54;14.50;99.90
19180;DHT22;9722;48.754;8.868;2023-05-09T05:32:15;14.50;99.90
19180;DHT22;9722;48.754;8.868;2023-05-09T05:35:36;14.70;99.90
19180;DHT22;9722;48.754;8.868;2023-05-09T05:38:56;14.80;99.90
19180;DHT22;9722;48.754;8.868;2023-05-09T05:42:17;14.90;99.90
19180;DHT22;9722;48.754;8.868;2023-05-09T05:45:37;14.90;99.90
19180;DHT22;9722;48.754;8.868;2023-05-09T05:48:58;15.00;99.90
19180;DHT22;9722;48.754;8.868;2023-05-09T05:52:18;14.90;99.90
19180;DHT22;9722;48.754;8.868;2023-05-09T05:55:39;15.00;99.90
19180;DHT22;9722;48.754;8.868;2023-05-09T05:58:59;15.00;99.90
19180;DHT22;9722;48.754;8.868;2023-05-09T06:02:20;15.10;99.90
19180;DHT22;9722;48.754;8.868;2023-05-09T06:05:41;15.20;99.90
19180;DHT22;9722;48.754;8.868;2023-05-09T06:09:03;15.30;99.90
19180;DHT22;9722;48.754;8.868;2023-05-09T06:12:23;15.40;99.90
19180;DHT22;9722;48.754;8.868;2023-05-09T06:15:44;15.60;99.90
19180;DHT22;9722;48.754;8.868;2023-05-09T06:19:04;15.80;99.90
19180;DHT22;9722;48.754;8.868;2023-05-09T06:22:25;16.20;99.90
19180;DHT22;9722;48.754;8.868;2023-05-09T06:25:46;16.50;99.90
19180;DHT22;9722;48.754;8.868;2023-05-09T06:29:06;16.70;99.90
19180;DHT22;9722;48.754;8.868;2023-05-09T06:32:27;16.90;99.90
19180;DHT22;9722;48.754;8.868;2023-05-09T06:35:48;17.10;99.90
19180;DHT22;9722;48.754;8.868;2023-05-09T06:39:08;17.30;99.90
19180;DHT22;9722;48.754;8.868;2023-05-09T06:42:29;17.50;99.90
19180;DHT22;9722;48.754;8.868;2023-05-09T06:45:51;17.70;99.90
19180;DHT22;9722;48.754;8.868;2023-05-09T06:49:12;17.80;99.90
19180;DHT22;9722;48.754;8.868;2023-05-09T06:52:33;17.80;99.90
19180;DHT22;9722;48.754;8.868;2023-05-09T06:55:54;17.90;99.90
19180;DHT22;9722;48.754;8.868;2023-05-09T06:59:14;17.90;99.90
19180;DHT22;9722;48.754;8.868;2023-05-09T07:02:35;17.90;99.90
19180;DHT22;9722;48.754;8.868;2023-05-09T07:06:00;18.00;99.90
19180;DHT22;9722;48.754;8.868;2023-05-09T07:09:21;18.10;99.70
19180;DHT22;9722;48.754;8.868;2023-05-09T07:12:42;18.30;99.30
19180;DHT22;9722;48.754;8.868;2023-05-09T07:16:03;18.40;98.60
19180;DHT22;9722;48.754;8.868;2023-05-09T07:19:24;18.60;98.30
19180;DHT22;9722;48.754;8.868;2023-05-09T07:22:44;18.80;97.60
19180;DHT22;9722;48.754;8.868;2023-05-09T07:26:05;18.90;97.60
19180;DHT22;9722;48.754;8.868;2023-05-09T07:29:25;19.10;97.00
19180;DHT22;9722;48.754;8.868;2023-05-09T07:32:46;19.20;96.30
19180;DHT22;9722;48.754;8.868;2023-05-09T07:36:07;19.30;95.60
19180;DHT22;9722;48.754;8.868;2023-05-09T07:39:32;19.30;95.30
19180;DHT22;9722;48.754;8.868;2023-05-09T07:42:52;19.30;95.10
19180;DHT22;9722;48.754;8.868;2023-05-09T07:46:14;19.20;95.00
19180;DHT22;9722;48.754;8.868;2023-05-09T07:49:34;19.30;94.80
19180;DHT22;9722;48.754;8.868;2023-05-09T07:52:55;19.30;94.50
19180;DHT22;9722;48.754;8.868;2023-05-09T07:56:15;19.20;94.40
19180;DHT22;9722;48.754;8.868;2023-05-09T07:59:36;19.10;94.50
19180;DHT22;9722;48.754;8.868;2023-05-09T08:02:56;19.10;94.50
19180;DHT22;9722;48.754;8.868;2023-05-09T08:06:17;19.30;94.00
19180;DHT22;9722;48.754;8.868;2023-05-09T08:09:37;19.60;93.20
19180;DHT22;9722;48.754;8.868;2023-05-09T08:12:58;20.00;92.40
19180;DHT22;9722;48.754;8.868;2023-05-09T08:16:19;20.30;91.90
19180;DHT22;9722;48.754;8.868;2023-05-09T08:19:39;20.40;91.20
19180;DHT22;9722;48.754;8.868;2023-05-09T08:23:00;20.40;90.60
19180;DHT22;9722;48.754;8.868;2023-05-09T08:26:20;20.40;90.60
19180;DHT22;9722;48.754;8.868;2023-05-09T08:29:42;20.30;90.50
19180;DHT22;9722;48.754;8.868;2023-05-09T08:33:03;20.10;90.30
19180;DHT22;9722;48.754;8.868;2023-05-09T08:36:23;19.80;90.70
19180;DHT22;9722;48.754;8.868;2023-05-09T08:39:44;19.60;91.20
19180;DHT22;9722;48.754;8.868;2023-05-09T08:43:06;19.50;91.50
19180;DHT22;9722;48.754;8.868;2023-05-09T08:46:30;19.60;91.20
19180;DHT22;9722;48.754;8.868;2023-05-09T08:49:53;20.10;91.10
19180;DHT22;9722;48.754;8.868;2023-05-09T08:53:14;21.20;89.20
19180;DHT22;9722;48.754;8.868;2023-05-09T08:56:34;22.40;83.20
19180;DHT22;9722;48.754;8.868;2023-05-09T08:59:56;23.30;79.70
19180;DHT22;9722;48.754;8.868;2023-05-09T09:03:16;24.40;75.30
19180;DHT22;9722;48.754;8.868;2023-05-09T09:06:38;25.20;70.80
19180;DHT22;9722;48.754;8.868;2023-05-09T09:09:59;25.80;66.40
19180;DHT22;9722;48.754;8.868;2023-05-09T09:13:22;26.00;63.90
19180;DHT22;9722;48.754;8.868;2023-05-09T09:16:44;25.90;63.50
19180;DHT22;9722;48.754;8.868;2023-05-09T09:20:09;26.20;61.70
19180;DHT22;9722;48.754;8.868;2023-05-09T09:23:31;26.60;60.30
19180;DHT22;9722;48.754;8.868;2023-05-09T09:26:52;26.80;58.70
19180;DHT22;9722;48.754;8.868;2023-05-09T09:30:13;27.10;58.10
19180;DHT22;9722;48.754;8.868;2023-05-09T09:33:34;27.20;57.60
19180;DHT22;9722;48.754;8.868;2023-05-09T09:36:55;27.30;57.10
19180;DHT22;9722;48.754;8.868;2023-05-09T09:40:15;27.70;56.70
19180;DHT22;9722;48.754;8.868;2023-05-09T09:43:37;28.30;56.00
19180;DHT22;9722;48.754;8.868;2023-05-09T09:46:57;28.80;54.50
19180;DHT22;9722;48.754;8.868;2023-05-09T09:50:19;29.10;53.30
19180;DHT22;9722;48.754;8.868;2023-05-09T09:53:43;28.80;52.50
19180;DHT22;9722;48.754;8.868;2023-05-09T09:57:03;28.00;53.60
19180;DHT22;9722;48.754;8.868;2023-05-09T10:00:25;27.50;54.40
19180;DHT22;9722;48.754;8.868;2023-05-09T10:03:51;27.40;54.90
19180;DHT22;9722;48.754;8.868;2023-05-09T10:07:11;27.90;53.90
19180;DHT22;9722;48.754;8.868;2023-05-09T10:10:33;28.20;53.00
19180;DHT22;9722;48.754;8.868;2023-05-09T10:13:54;28.30;52.40
19180;DHT22;9722;48.754;8.868;2023-05-09T10:17:15;28.50;52.30
19180;DHT22;9722;48.754;8.868;2023-05-09T10:20:37;28.20;52.30
19180;DHT22;9722;48.754;8.868;2023-05-09T10:24:01;28.00;52.40
19180;DHT22;9722;48.754;8.868;2023-05-09T10:27:26;28.00;52.40
19180;DHT22;9722;48.754;8.868;2023-05-09T10:30:58;28.20;52.50
19180;DHT22;9722;48.754;8.868;2023-05-09T10:34:21;28.40;52.20
19180;DHT22;9722;48.754;8.868;2023-05-09T10:37:44;28.10;52.10
19180;DHT22;9722;48.754;8.868;2023-05-09T10:41:05;28.00;52.00
19180;DHT22;9722;48.754;8.868;2023-05-09T10:44:26;28.20;52.10
19180;DHT22;9722;48.754;8.868;2023-05-09T10:47:49;28.40;51.80
19180;DHT22;9722;48.754;8.868;2023-05-09T10:51:11;28.50;51.50
19180;DHT22;9722;48.754;8.868;2023-05-09T10:54:35;28.50;51.40
19180;DHT22;9722;48.754;8.868;2023-05-09T10:58:06;29.00;51.20
19180;DHT22;9722;48.754;8.868;2023-05-09T11:01:37;29.50;50.40
19180;DHT22;9722;48.754;8.868;2023-05-09T11:05:19;29.60;49.10
19180;DHT22;9722;48.754;8.868;2023-05-09T11:08:41;29.80;48.60
19180;DHT22;9722;48.754;8.868;2023-05-09T11:15:25;29.50;47.50
19180;DHT22;9722;48.754;8.868;2023-05-09T11:18:51;29.00;47.70
19180;DHT22;9722;48.754;8.868;2023-05-09T11:22:19;28.80;48.10
19180;DHT22;9722;48.754;8.868;2023-05-09T11:25:39;28.70;47.60
19180;DHT22;9722;48.754;8.868;2023-05-09T11:29:05;28.10;48.40
19180;DHT22;9722;48.754;8.868;2023-05-09T11:32:29;27.50;49.10
19180;DHT22;9722;48.754;8.868;2023-05-09T11:36:15;27.10;50.10
19180;DHT22;9722;48.754;8.868;2023-05-09T11:39:56;26.50;51.10
19180;DHT22;9722;48.754;8.868;2023-05-09T11:43:18;25.90;52.20
19180;DHT22;9722;48.754;8.868;2023-05-09T11:46:38;25.60;52.80
19180;DHT22;9722;48.754;8.868;2023-05-09T11:49:59;25.40;53.30
19180;DHT22;9722;48.754;8.868;2023-05-09T11:53:19;25.10;53.80
19180;DHT22;9722;48.754;8.868;2023-05-09T11:56:40;24.90;54.10
19180;DHT22;9722;48.754;8.868;2023-05-09T12:00:01;24.70;54.20
19180;DHT22;9722;48.754;8.868;2023-05-09T12:03:24;24.50;54.60
19180;DHT22;9722;48.754;8.868;2023-05-09T12:06:47;24.20;55.10
19180;DHT22;9722;48.754;8.868;2023-05-09T12:10:12;23.90;55.70
19180;DHT22;9722;48.754;8.868;2023-05-09T12:13:34;23.70;56.30
19180;DHT22;9722;48.754;8.868;2023-05-09T12:16:55;23.50;57.00
19180;DHT22;9722;48.754;8.868;2023-05-09T12:20:16;23.50;57.30
19180;DHT22;9722;48.754;8.868;2023-05-09T12:23:36;23.60;57.20
19180;DHT22;9722;48.754;8.868;2023-05-09T12:26:58;23.80;57.40
19180;DHT22;9722;48.754;8.868;2023-05-09T12:30:19;24.10;57.60
19180;DHT22;9722;48.754;8.868;2023-05-09T12:33:40;24.30;56.70
19180;DHT22;9722;48.754;8.868;2023-05-09T12:37:00;24.60;56.30
19180;DHT22;9722;48.754;8.868;2023-05-09T12:40:23;24.80;56.00
19180;DHT22;9722;48.754;8.868;2023-05-09T12:43:47;25.20;55.20
19180;DHT22;9722;48.754;8.868;2023-05-09T12:47:11;25.60;53.60
19180;DHT22;9722;48.754;8.868;2023-05-09T12:50:32;25.90;53.00
19180;DHT22;9722;48.754;8.868;2023-05-09T12:54:02;26.30;52.20
19180;DHT22;9722;48.754;8.868;2023-05-09T12:57:24;26.40;51.60
19180;DHT22;9722;48.754;8.868;2023-05-09T13:00:46;26.40;51.20
19180;DHT22;9722;48.754;8.868;2023-05-09T13:04:07;26.40;51.80
19180;DHT22;9722;48.754;8.868;2023-05-09T13:07:27;26.50;51.50
19180;DHT22;9722;48.754;8.868;2023-05-09T13:10:48;26.40;51.70
19180;DHT22;9722;48.754;8.868;2023-05-09T13:14:08;26.20;52.20
19180;DHT22;9722;48.754;8.868;2023-05-09T13:17:29;26.20;52.30
19180;DHT22;9722;48.754;8.868;2023-05-09T13:20:50;26.20;51.90
19180;DHT22;9722;48.754;8.868;2023-05-09T13:24:11;26.10;52.20
19180;DHT22;9722;48.754;8.868;2023-05-09T13:27:32;26.10;52.60
19180;DHT22;9722;48.754;8.868;2023-05-09T13:30:53;26.00;52.40
19180;DHT22;9722;48.754;8.868;2023-05-09T13:34:13;25.80;52.50
19180;DHT22;9722;48.754;8.868;2023-05-09T13:37:34;25.60;52.20
19180;DHT22;9722;48.754;8.868;2023-05-09T13:40:55;25.40;52.90
19180;DHT22;9722;48.754;8.868;2023-05-09T13:44:15;25.20;53.50
19180;DHT22;9722;48.754;8.868;2023-05-09T13:47:36;25.20;54.10
19180;DHT22;9722;48.754;8.868;2023-05-09T13:50:57;25.20;54.40
19180;DHT22;9722;48.754;8.868;2023-05-09T13:54:19;25.20;54.30
19180;DHT22;9722;48.754;8.868;2023-05-09T13:57:41;25.10;54.10
19180;DHT22;9722;48.754;8.868;2023-05-09T14:01:02;25.00;54.60
19180;DHT22;9722;48.754;8.868;2023-05-09T14:04:23;24.90;54.70
19180;DHT22;9722;48.754;8.868;2023-05-09T14:07:43;24.80;54.70
19180;DHT22;9722;48.754;8.868;2023-05-09T14:11:04;24.70;55.10
19180;DHT22;9722;48.754;8.868;2023-05-09T14:14:25;24.50;55.50
19180;DHT22;9722;48.754;8.868;2023-05-09T14:17:45;24.40;55.70
19180;DHT22;9722;48.754;8.868;2023-05-09T14:21:06;24.20;56.00
19180;DHT22;9722;48.754;8.868;2023-05-09T14:24:26;24.00;56.60
19180;DHT22;9722;48.754;8.868;2023-05-09T14:27:50;23.80;57.80
19180;DHT22;9722;48.754;8.868;2023-05-09T14:31:10;23.60;58.70
19180;DHT22;9722;48.754;8.868;2023-05-09T14:34:31;23.60;59.40
19180;DHT22;9722;48.754;8.868;2023-05-09T14:37:52;23.70;59.70
19180;DHT22;9722;48.754;8.868;2023-05-09T14:41:13;23.80;59.50
19180;DHT22;9722;48.754;8.868;2023-05-09T14:44:34;23.90;59.20
19180;DHT22;9722;48.754;8.868;2023-05-09T14:47:54;23.90;59.40
19180;DHT22;9722;48.754;8.868;2023-05-09T14:51:15;24.00;59.30
19180;DHT22;9722;48.754;8.868;2023-05-09T14:54:36;23.90;58.90
19180;DHT22;9722;48.754;8.868;2023-05-09T14:57:56;23.90;58.90
19180;DHT22;9722;48.754;8.868;2023-05-09T15:01:17;23.70;58.00
19180;DHT22;9722;48.754;8.868;2023-05-09T15:04:38;23.60;57.60
19180;DHT22;9722;48.754;8.868;2023-05-09T15:08:02;23.50;58.20
19180;DHT22;9722;48.754;8.868;2023-05-09T15:11:23;23.40;57.80
19180;DHT22;9722;48.754;8.868;2023-05-09T15:14:44;23.40;57.90
19180;DHT22;9722;48.754;8.868;2023-05-09T15:18:04;23.30;57.20
19180;DHT22;9722;48.754;8.868;2023-05-09T15:21:27;23.20;57.60
19180;DHT22;9722;48.754;8.868;2023-05-09T15:24:48;23.20;58.00
19180;DHT22;9722;48.754;8.868;2023-05-09T15:28:08;23.20;59.10
19180;DHT22;9722;48.754;8.868;2023-05-09T15:31:31;23.20;59.50
19180;DHT22;9722;48.754;8.868;2023-05-09T15:34:52;23.20;59.50
19180;DHT22;9722;48.754;8.868;2023-05-09T15:38:13;23.20;59.30
19180;DHT22;9722;48.754;8.868;2023-05-09T15:41:33;23.10;58.30
19180;DHT22;9722;48.754;8.868;2023-05-09T15:44:54;23.00;57.80
19180;DHT22;9722;48.754;8.868;2023-05-09T15:48:15;22.90;57.60
19180;DHT22;9722;48.754;8.868;2023-05-09T15:51:35;22.80;57.50
19180;DHT22;9722;48.754;8.868;2023-05-09T15:54:56;22.70;57.30
19180;DHT22;9722;48.754;8.868;2023-05-09T15:58:17;22.70;57.30
19180;DHT22;9722;48.754;8.868;2023-05-09T16:01:37;22.50;57.50
19180;DHT22;9722;48.754;8.868;2023-05-09T16:04:58;22.30;57.60
19180;DHT22;9722;48.754;8.868;2023-05-09T16:08:18;22.30;58.00
19180;DHT22;9722;48.754;8.868;2023-05-09T16:11:40;22.20;58.70
19180;DHT22;9722;48.754;8.868;2023-05-09T16:15:00;22.10;58.70
19180;DHT22;9722;48.754;8.868;2023-05-09T16:18:21;22.00;58.70
19180;DHT22;9722;48.754;8.868;2023-05-09T16:21:44;21.90;59.10
19180;DHT22;9722;48.754;8.868;2023-05-09T16:25:05;21.80;59.80
19180;DHT22;9722;48.754;8.868;2023-05-09T16:28:26;21.70;61.10
19180;DHT22;9722;48.754;8.868;2023-05-09T16:31:47;21.70;62.50
19180;DHT22;9722;48.754;8.868;2023-05-09T16:35:08;21.60;62.50
19180;DHT22;9722;48.754;8.868;2023-05-09T16:38:28;21.60;62.40
19180;DHT22;9722;48.754;8.868;2023-05-09T16:41:49;21.40;62.80
19180;DHT22;9722;48.754;8.868;2023-05-09T16:45:10;21.20;64.60
19180;DHT22;9722;48.754;8.868;2023-05-09T16:48:30;21.10;67.10
19180;DHT22;9722;48.754;8.868;2023-05-09T16:51:51;20.90;69.40
19180;DHT22;9722;48.754;8.868;2023-05-09T16:55:11;20.80;71.40
19180;DHT22;9722;48.754;8.868;2023-05-09T16:58:32;20.60;72.90
19180;DHT22;9722;48.754;8.868;2023-05-09T17:01:52;20.50;74.60
19180;DHT22;9722;48.754;8.868;2023-05-09T17:05:13;20.40;76.10
19180;DHT22;9722;48.754;8.868;2023-05-09T17:08:33;20.30;76.80
19180;DHT22;9722;48.754;8.868;2023-05-09T17:11:54;20.10;76.20
19180;DHT22;9722;48.754;8.868;2023-05-09T17:15:15;19.90;76.90
19180;DHT22;9722;48.754;8.868;2023-05-09T17:18:35;19.70;78.40
19180;DHT22;9722;48.754;8.868;2023-05-09T17:21:56;19.50;77.70
19180;DHT22;9722;48.754;8.868;2023-05-09T17:25:18;19.20;77.80
19180;DHT22;9722;48.754;8.868;2023-05-09T17:28:38;18.90;78.80
19180;DHT22;9722;48.754;8.868;2023-05-09T17:31:59;18.70;80.20
19180;DHT22;9722;48.754;8.868;2023-05-09T17:35:19;18.60;81.30
19180;DHT22;9722;48.754;8.868;2023-05-09T17:38:41;18.40;81.90
19180;DHT22;9722;48.754;8.868;2023-05-09T17:42:02;18.30;82.90
19180;DHT22;9722;48.754;8.868;2023-05-09T17:45:23;18.20;83.60
19180;DHT22;9722;48.754;8.868;2023-05-09T17:48:43;18.00;84.60
19180;DHT22;9722;48.754;8.868;2023-05-09T17:52:04;18.00;85.60
19180;DHT22;9722;48.754;8.868;2023-05-09T17:55:25;17.80;85.80
19180;DHT22;9722;48.754;8.868;2023-05-09T17:58:45;17.70;87.50
19180;DHT22;9722;48.754;8.868;2023-05-09T18:02:07;17.60;86.90
19180;DHT22;9722;48.754;8.868;2023-05-09T18:05:27;17.50;87.20
19180;DHT22;9722;48.754;8.868;2023-05-09T18:08:48;17.40;88.00
19180;DHT22;9722;48.754;8.868;2023-05-09T18:12:09;17.30;88.20
19180;DHT22;9722;48.754;8.868;2023-05-09T18:15:29;17.30;89.10
19180;DHT22;9722;48.754;8.868;2023-05-09T18:18:51;17.20;89.80
19180;DHT22;9722;48.754;8.868;2023-05-09T18:22:11;17.10;90.30
19180;DHT22;9722;48.754;8.868;2023-05-09T18:25:33;17.10;90.60
19180;DHT22;9722;48.754;8.868;2023-05-09T18:28:54;17.00;91.00
19180;DHT22;9722;48.754;8.868;2023-05-09T18:32:14;17.00;91.50
19180;DHT22;9722;48.754;8.868;2023-05-09T18:35:36;17.00;91.70
19180;DHT22;9722;48.754;8.868;2023-05-09T18:38:57;16.90;91.90
19180;DHT22;9722;48.754;8.868;2023-05-09T18:42:18;16.90;92.10
19180;DHT22;9722;48.754;8.868;2023-05-09T18:45:39;16.90;92.40
19180;DHT22;9722;48.754;8.868;2023-05-09T18:49:04;16.80;92.70
19180;DHT22;9722;48.754;8.868;2023-05-09T18:52:24;16.80;93.00
19180;DHT22;9722;48.754;8.868;2023-05-09T18:55:45;16.60;93.50
19180;DHT22;9722;48.754;8.868;2023-05-09T18:59:06;16.60;94.00
19180;DHT22;9722;48.754;8.868;2023-05-09T19:02:28;16.50;94.40
19180;DHT22;9722;48.754;8.868;2023-05-09T19:05:49;16.40;94.80
19180;DHT22;9722;48.754;8.868;2023-05-09T19:09:10;16.40;95.30
19180;DHT22;9722;48.754;8.868;2023-05-09T19:12:30;16.30;95.70
19180;DHT22;9722;48.754;8.868;2023-05-09T19:15:51;16.30;96.20
19180;DHT22;9722;48.754;8.868;2023-05-09T19:19:11;16.20;96.60
19180;DHT22;9722;48.754;8.868;2023-05-09T19:22:32;16.20;97.00
19180;DHT22;9722;48.754;8.868;2023-05-09T19:25:53;16.20;97.50
19180;DHT22;9722;48.754;8.868;2023-05-09T19:29:14;16.20;98.00
19180;DHT22;9722;48.754;8.868;2023-05-09T19:32:34;16.10;98.30
19180;DHT22;9722;48.754;8.868;2023-05-09T19:35:55;16.10;98.70
19180;DHT22;9722;48.754;8.868;2023-05-09T19:39:15;16.10;98.80
19180;DHT22;9722;48.754;8.868;2023-05-09T19:42:36;16.10;99.20
19180;DHT22;9722;48.754;8.868;2023-05-09T19:45:57;16.00;99.60
19180;DHT22;9722;48.754;8.868;2023-05-09T19:49:19;16.00;99.90
19180;DHT22;9722;48.754;8.868;2023-05-09T19:52:39;15.90;99.90
19180;DHT22;9722;48.754;8.868;2023-05-09T19:56:00;15.90;99.90
19180;DHT22;9722;48.754;8.868;2023-05-09T19:59:22;15.80;99.90
19180;DHT22;9722;48.754;8.868;2023-05-09T20:02:42;15.80;99.90
19180;DHT22;9722;48.754;8.868;2023-05-09T20:06:03;15.70;99.90
19180;DHT22;9722;48.754;8.868;2023-05-09T20:09:23;15.60;99.90
19180;DHT22;9722;48.754;8.868;2023-05-09T20:12:44;15.60;99.90
19180;DHT22;9722;48.754;8.868;2023-05-09T20:16:04;15.50;99.90
19180;DHT22;9722;48.754;8.868;2023-05-09T20:19:25;15.50;99.90
19180;DHT22;9722;48.754;8.868;2023-05-09T20:22:46;15.50;99.90
19180;DHT22;9722;48.754;8.868;2023-05-09T20:26:06;15.40;99.90
19180;DHT22;9722;48.754;8.868;2023-05-09T20:29:27;15.40;99.90
19180;DHT22;9722;48.754;8.868;2023-05-09T20:32:47;15.30;99.90
19180;DHT22;9722;48.754;8.868;2023-05-09T20:36:08;15.30;99.90
19180;DHT22;9722;48.754;8.868;2023-05-09T20:39:30;15.20;99.90
19180;DHT22;9722;48.754;8.868;2023-05-09T20:42:50;15.20;99.90
19180;DHT22;9722;48.754;8.868;2023-05-09T20:46:12;15.20;99.90
19180;DHT22;9722;48.754;8.868;2023-05-09T20:49:33;15.10;99.90
19180;DHT22;9722;48.754;8.868;2023-05-09T20:52:53;15.10;99.90
19180;DHT22;9722;48.754;8.868;2023-05-09T20:56:14;15.10;99.90
19180;DHT22;9722;48.754;8.868;2023-05-09T20:59:35;15.10;99.90
19180;DHT22;9722;48.754;8.868;2023-05-09T21:02:56;15.20;99.90
19180;DHT22;9722;48.754;8.868;2023-05-09T21:06:16;15.00;99.90
19180;DHT22;9722;48.754;8.868;2023-05-09T21:09:37;15.00;99.90
19180;DHT22;9722;48.754;8.868;2023-05-09T21:12:58;15.00;99.90
19180;DHT22;9722;48.754;8.868;2023-05-09T21:16:18;15.00;99.90
19180;DHT22;9722;48.754;8.868;2023-05-09T21:19:39;14.90;99.90
19180;DHT22;9722;48.754;8.868;2023-05-09T21:22:59;14.90;99.90
19180;DHT22;9722;48.754;8.868;2023-05-09T21:26:20;14.90;99.90
19180;DHT22;9722;48.754;8.868;2023-05-09T21:29:42;14.90;99.90
19180;DHT22;9722;48.754;8.868;2023-05-09T21:33:02;14.90;99.90
19180;DHT22;9722;48.754;8.868;2023-05-09T21:36:23;14.90;99.90
19180;DHT22;9722;48.754;8.868;2023-05-09T21:39:44;14.90;99.90
19180;DHT22;9722;48.754;8.868;2023-05-09T21:43:04;14.90;99.90